Time;durP1;ratioP1;P1;durP2;ratioP2;P2;SDS_P1;SDS_P2;PMS_P1;PMS_P2;Temp;Humidity;BMP_temperature;BMP_pressure;BME280_temperature;BME280_humidity;BME280_pressure;Samples;Min_cycle;Max_cycle;Signal;HPM_P1;HPM_P2
2020/12/11 00:01:26;;;;;;;10.48;6.50;;;19.60;79.80;;;;;;5074155;28;20077;-59
2020/12/11 00:03:52;;;;;;;11.85;6.75;;;19.60;79.90;;;;;;5074531;28;20021;-59
2020/12/11 00:06:24;;;;;;;11.95;6.90;;;19.60;79.80;;;;;;5072791;28;20024;-59
2020/12/11 00:08:50;;;;;;;12.63;7.07;;;19.60;79.90;;;;;;5073149;28;20039;-59
2020/12/11 00:11:16;;;;;;;11.20;6.05;;;19.60;79.90;;;;;;5068686;28;20358;-59
2020/12/11 00:13:42;;;;;;;9.75;6.40;;;19.60;79.70;;;;;;5065636;28;20052;-59
2020/12/11 00:16:08;;;;;;;12.93;6.22;;;19.60;80.10;;;;;;5074170;28;20033;-59
2020/12/11 00:18:35;;;;;;;9.70;6.00;;;19.60;79.90;;;;;;5072947;28;20020;-60
2020/12/11 00:21:01;;;;;;;14.50;6.57;;;19.60;79.60;;;;;;5074104;28;20017;-60
2020/12/11 00:23:27;;;;;;;10.18;5.80;;;19.60;80.00;;;;;;5054209;28;20045;-59
2020/12/11 00:25:59;;;;;;;12.90;6.32;;;19.60;80.00;;;;;;5052409;28;20032;-59
2020/12/11 00:28:29;;;;;;;9.63;6.28;;;19.60;79.80;;;;;;5053738;28;20112;-59
2020/12/11 00:30:55;;;;;;;13.70;6.20;;;19.60;79.70;;;;;;5069656;28;20342;-59
2020/12/11 00:33:22;;;;;;;12.75;6.18;;;19.60;79.80;;;;;;5058062;28;20113;-59
2020/12/11 00:35:48;;;;;;;10.07;5.78;;;19.60;79.80;;;;;;5054262;28;20115;-59
2020/12/11 00:38:13;;;;;;;9.57;6.13;;;19.60;79.60;;;;;;5053962;28;20513;-59
2020/12/11 00:40:39;;;;;;;10.00;5.88;;;19.60;79.60;;;;;;5053776;28;20044;-59
2020/12/11 00:43:05;;;;;;;14.30;7.32;;;19.60;79.70;;;;;;5062621;28;20035;-59
2020/12/11 00:45:31;;;;;;;11.45;6.82;;;19.60;79.50;;;;;;5072229;28;20433;-60
2020/12/11 00:47:56;;;;;;;12.35;6.55;;;19.60;79.50;;;;;;5073386;28;20077;-59
2020/12/11 00:50:22;;;;;;;9.80;6.28;;;19.60;79.40;;;;;;5073612;28;20041;-59
2020/12/11 00:52:48;;;;;;;12.30;6.13;;;19.60;79.40;;;;;;5067924;28;20032;-59
2020/12/11 00:55:16;;;;;;;11.68;5.97;;;19.60;79.50;;;;;;5053516;28;20025;-59
2020/12/11 00:57:42;;;;;;;10.63;6.38;;;19.60;79.50;;;;;;5051626;28;20048;-59
2020/12/11 01:00:13;;;;;;;10.73;6.07;;;19.60;79.30;;;;;;5053430;28;20409;-59
2020/12/11 01:02:38;;;;;;;13.52;6.18;;;19.60;79.60;;;;;;5053846;28;20440;-59
2020/12/11 01:05:04;;;;;;;9.50;6.05;;;19.60;79.40;;;;;;5054105;28;20048;-60
2020/12/11 01:07:30;;;;;;;13.90;6.00;;;19.60;79.40;;;;;;5053185;28;20032;-59
2020/12/11 01:09:55;;;;;;;11.80;6.47;;;19.60;79.30;;;;;;5053360;28;20033;-60
2020/12/11 01:12:21;;;;;;;11.18;6.25;;;19.60;79.30;;;;;;5051802;28;20479;-59
2020/12/11 01:14:46;;;;;;;13.52;6.32;;;19.60;79.00;;;;;;5072667;28;20396;-59
2020/12/11 01:17:12;;;;;;;10.18;6.00;;;19.60;79.30;;;;;;5072759;28;20069;-60
2020/12/11 01:19:38;;;;;;;8.82;6.32;;;19.60;79.00;;;;;;5073028;28;20035;-59
2020/12/11 01:22:06;;;;;;;11.13;6.65;;;19.60;79.30;;;;;;5071413;28;20074;-59
2020/12/11 01:24:32;;;;;;;9.73;6.20;;;19.60;79.40;;;;;;5070086;28;20048;-59
2020/12/11 01:26:57;;;;;;;10.60;5.68;;;19.60;79.00;;;;;;5071201;28;20024;-59
2020/12/11 01:29:23;;;;;;;11.23;6.00;;;19.60;79.20;;;;;;5072829;28;20183;-59
2020/12/11 01:31:49;;;;;;;10.55;6.60;;;19.60;79.40;;;;;;5066881;28;20075;-59
2020/12/11 01:34:15;;;;;;;11.05;5.90;;;19.60;79.00;;;;;;5056267;28;20035;-59
2020/12/11 01:36:41;;;;;;;14.07;5.88;;;19.60;79.30;;;;;;5071231;28;20024;-60
2020/12/11 01:39:06;;;;;;;11.35;6.70;;;19.60;79.20;;;;;;5072810;28;20074;-60
2020/12/11 01:41:32;;;;;;;8.23;5.82;;;19.60;78.80;;;;;;5071965;28;20540;-59
2020/12/11 01:44:06;;;;;;;8.95;5.75;;;19.60;78.90;;;;;;5072395;28;20025;-59
2020/12/11 01:46:37;;;;;;;10.15;6.00;;;19.60;79.00;;;;;;5052671;28;20103;-60
2020/12/11 01:49:04;;;;;;;8.97;5.77;;;19.60;78.70;;;;;;5052087;28;20090;-59
2020/12/11 01:51:29;;;;;;;8.07;5.10;;;19.60;78.60;;;;;;5050332;28;20036;-59
2020/12/11 01:53:56;;;;;;;11.23;6.03;;;19.60;78.90;;;;;;5057463;28;20024;-59
2020/12/11 01:56:25;;;;;;;11.40;5.63;;;19.60;78.70;;;;;;5072140;28;20025;-59
2020/12/11 01:58:59;;;;;;;9.00;5.75;;;19.60;78.60;;;;;;5072389;28;20024;-59
2020/12/11 02:01:25;;;;;;;9.93;5.93;;;19.60;78.70;;;;;;5071230;28;20441;-59
2020/12/11 02:03:51;;;;;;;9.15;5.30;;;19.60;78.40;;;;;;5070806;28;20024;-59
2020/12/11 02:06:16;;;;;;;10.27;6.03;;;19.60;78.80;;;;;;5069464;28;20089;-59
2020/12/11 02:08:42;;;;;;;8.75;5.45;;;19.60;78.70;;;;;;5072365;28;20032;-59
2020/12/11 02:11:20;;;;;;;9.70;5.00;;;19.60;78.80;;;;;;5072352;28;20086;-59
2020/12/11 02:13:46;;;;;;;8.10;5.00;;;19.60;78.80;;;;;;5072266;28;20020;-59
2020/12/11 02:16:12;;;;;;;13.85;6.50;;;19.60;78.50;;;;;;5049894;28;20033;-59
2020/12/11 02:18:40;;;;;;;10.90;5.63;;;19.60;78.60;;;;;;5052457;28;20117;-59
2020/12/11 02:21:09;;;;;;;10.27;5.32;;;19.60;78.40;;;;;;5052254;28;20107;-59
2020/12/11 02:23:35;;;;;;;9.55;4.95;;;19.60;78.50;;;;;;5066956;28;20052;-59
2020/12/11 02:26:01;;;;;;;8.65;5.20;;;19.60;79.10;;;;;;5072212;28;20488;-59
2020/12/11 02:28:31;;;;;;;11.90;5.50;;;19.60;78.30;;;;;;5071955;28;20071;-60
2020/12/11 02:30:57;;;;;;;12.00;5.15;;;19.60;78.40;;;;;;5070802;28;20040;-60
2020/12/11 02:33:23;;;;;;;8.80;5.43;;;19.60;78.40;;;;;;5071062;28;20512;-60
2020/12/11 02:35:49;;;;;;;9.98;5.35;;;19.60;78.40;;;;;;5072208;28;20056;-59
2020/12/11 02:38:15;;;;;;;7.68;5.80;;;19.60;78.40;;;;;;5072050;28;20055;-59
2020/12/11 02:40:49;;;;;;;8.90;5.53;;;19.60;78.30;;;;;;5072040;28;20116;-59
2020/12/11 02:43:15;;;;;;;9.88;5.75;;;19.60;78.40;;;;;;5061188;28;20125;-59
2020/12/11 02:45:42;;;;;;;6.97;4.88;;;19.60;78.10;;;;;;5051861;28;20036;-59
2020/12/11 02:48:08;;;;;;;10.38;5.70;;;19.60;78.10;;;;;;5059695;28;20037;-59
2020/12/11 02:50:33;;;;;;;9.27;6.07;;;19.60;78.20;;;;;;5066070;28;20021;-59
2020/12/11 02:52:59;;;;;;;9.60;5.03;;;19.60;78.30;;;;;;5055592;28;20029;-59
2020/12/11 02:55:25;;;;;;;7.95;4.65;;;19.60;78.00;;;;;;5075717;28;20453;-59
2020/12/11 02:57:51;;;;;;;7.90;5.07;;;19.60;78.20;;;;;;5074436;28;20021;-59
2020/12/11 03:00:16;;;;;;;8.60;5.22;;;19.60;78.30;;;;;;5075737;28;20049;-59
2020/12/11 03:02:42;;;;;;;9.38;5.05;;;19.60;77.80;;;;;;5075358;28;20510;-61
2020/12/11 03:05:08;;;;;;;7.22;5.35;;;19.60;78.10;;;;;;5058500;28;20130;-59
2020/12/11 03:07:33;;;;;;;6.72;4.90;;;19.60;78.10;;;;;;5055166;28;20029;-59
2020/12/11 03:09:59;;;;;;;7.05;5.15;;;19.60;78.20;;;;;;5053920;28;20377;-59
2020/12/11 03:12:24;;;;;;;9.95;5.18;;;19.60;78.10;;;;;;5054318;28;20021;-60
2020/12/11 03:14:50;;;;;;;11.77;5.38;;;19.60;78.00;;;;;;5063413;28;20040;-59
2020/12/11 03:17:15;;;;;;;10.95;4.80;;;19.60;78.20;;;;;;5055344;28;20025;-59
2020/12/11 03:19:41;;;;;;;6.95;4.85;;;19.60;78.10;;;;;;5056620;28;20423;-59
2020/12/11 03:22:06;;;;;;;8.23;4.60;;;19.60;78.00;;;;;;5055284;28;20075;-59
2020/12/11 03:24:32;;;;;;;8.75;5.35;;;19.60;77.80;;;;;;5061510;28;20460;-59
2020/12/11 03:26:57;;;;;;;8.70;5.55;;;19.60;77.90;;;;;;5075527;28;20028;-59
2020/12/11 03:29:23;;;;;;;6.63;4.38;;;19.60;78.10;;;;;;5074910;28;20029;-59
2020/12/11 03:31:49;;;;;;;9.60;4.70;;;19.60;77.70;;;;;;5075220;28;20027;-59
2020/12/11 03:34:14;;;;;;;11.20;5.75;;;19.60;77.90;;;;;;5070709;28;20236;-59
2020/12/11 03:36:40;;;;;;;7.90;4.25;;;19.50;78.00;;;;;;5075376;28;20136;-60
2020/12/11 03:39:06;;;;;;;7.82;5.18;;;19.50;77.70;;;;;;5075094;28;20125;-59
2020/12/11 03:41:31;;;;;;;8.27;4.60;;;19.50;77.70;;;;;;5073540;28;20044;-59
2020/12/11 03:43:57;;;;;;;8.45;4.72;;;19.50;77.80;;;;;;5074769;28;20036;-59
2020/12/11 03:46:23;;;;;;;7.90;4.70;;;19.60;77.80;;;;;;5072158;28;20025;-59
2020/12/11 03:48:50;;;;;;;6.63;4.80;;;19.60;77.60;;;;;;5074983;28;20427;-59
2020/12/11 03:51:17;;;;;;;8.57;4.82;;;19.60;78.00;;;;;;5073141;28;20077;-59
2020/12/11 03:53:43;;;;;;;7.97;5.40;;;19.50;77.50;;;;;;5075021;28;20118;-59
2020/12/11 03:56:09;;;;;;;7.88;4.68;;;19.50;77.70;;;;;;5063813;28;20457;-59
2020/12/11 03:58:34;;;;;;;6.88;4.40;;;19.50;77.60;;;;;;5054395;28;20025;-59
2020/12/11 04:01:00;;;;;;;8.18;4.68;;;19.50;77.80;;;;;;5052947;28;20362;-59
2020/12/11 04:03:25;;;;;;;8.75;4.57;;;19.50;77.60;;;;;;5053852;28;20450;-60
2020/12/11 04:05:51;;;;;;;7.72;4.60;;;19.60;77.40;;;;;;5054229;28;20440;-59
2020/12/11 04:08:16;;;;;;;7.28;4.10;;;19.50;77.30;;;;;;5054364;28;20071;-59
2020/12/11 04:10:42;;;;;;;7.63;4.35;;;19.50;77.60;;;;;;5054316;28;20108;-59
2020/12/11 04:13:08;;;;;;;8.02;4.45;;;19.60;77.60;;;;;;5056733;28;20043;-59
2020/12/11 04:15:33;;;;;;;9.25;4.25;;;19.50;77.50;;;;;;5054102;28;20412;-59
2020/12/11 04:17:59;;;;;;;7.05;4.40;;;19.60;77.50;;;;;;5073268;28;20035;-59
2020/12/11 04:20:24;;;;;;;6.65;4.30;;;19.50;77.40;;;;;;5074511;28;20023;-59
2020/12/11 04:22:50;;;;;;;7.72;4.88;;;19.50;77.50;;;;;;5069979;28;20479;-59
2020/12/11 04:25:16;;;;;;;7.00;5.18;;;19.50;77.50;;;;;;5054104;28;20047;-59
2020/12/11 04:27:41;;;;;;;8.48;4.75;;;19.50;77.40;;;;;;5065972;28;20020;-59
2020/12/11 04:30:07;;;;;;;6.70;4.18;;;19.50;77.40;;;;;;5074053;28;20021;-59
2020/12/11 04:32:32;;;;;;;10.05;4.78;;;19.50;77.40;;;;;;5073706;28;20021;-59
2020/12/11 04:34:59;;;;;;;6.90;4.45;;;19.50;77.40;;;;;;5073865;28;20028;-59
2020/12/11 04:37:25;;;;;;;6.55;4.40;;;19.50;77.80;;;;;;5065293;28;20381;-59
2020/12/11 04:39:50;;;;;;;7.40;4.45;;;19.50;77.70;;;;;;5053756;28;20100;-59
2020/12/11 04:42:17;;;;;;;7.53;4.57;;;19.50;77.60;;;;;;5062564;28;20490;-59
2020/12/11 04:44:43;;;;;;;5.82;3.80;;;19.50;77.50;;;;;;5073766;28;20372;-59
2020/12/11 04:47:10;;;;;;;6.45;4.45;;;19.60;77.50;;;;;;5070214;28;20025;-59
2020/12/11 04:49:36;;;;;;;8.80;4.97;;;19.50;77.80;;;;;;5053394;28;20112;-59
2020/12/11 04:52:04;;;;;;;8.85;4.97;;;19.50;77.70;;;;;;5053740;28;20119;-59
2020/12/11 04:54:37;;;;;;;5.53;4.07;;;19.50;77.60;;;;;;5051994;28;20031;-58
2020/12/11 04:57:07;;;;;;;5.97;3.95;;;19.50;77.70;;;;;;5053619;28;20108;-59
2020/12/11 04:59:33;;;;;;;9.73;4.30;;;19.60;77.70;;;;;;5053419;28;20025;-59
2020/12/11 05:02:03;;;;;;;8.85;3.88;;;19.60;77.50;;;;;;5053072;28;20087;-59
2020/12/11 05:04:28;;;;;;;8.35;4.88;;;19.60;77.70;;;;;;5057534;28;20472;-59
2020/12/11 05:06:54;;;;;;;9.05;4.40;;;19.60;77.70;;;;;;5073266;28;20059;-59
2020/12/11 05:09:20;;;;;;;7.30;4.55;;;19.60;77.50;;;;;;5071921;28;20487;-59
2020/12/11 05:11:48;;;;;;;5.85;3.65;;;19.60;77.60;;;;;;5072015;28;20028;-59
2020/12/11 05:14:30;;;;;;;6.68;4.22;;;19.60;77.70;;;;;;5071718;28;20032;-59
2020/12/11 05:17:05;;;;;;;7.43;4.15;;;19.60;77.40;;;;;;5072949;28;20047;-59
2020/12/11 05:19:32;;;;;;;6.35;4.68;;;19.60;77.40;;;;;;5057828;28;20104;-59
2020/12/11 05:22:08;;;;;;;8.18;4.40;;;19.60;77.30;;;;;;5052915;28;20104;-59
2020/12/11 05:24:46;;;;;;;8.05;4.32;;;19.60;77.40;;;;;;5052554;28;20053;-59
2020/12/11 05:27:27;;;;;;;7.63;4.30;;;19.60;77.30;;;;;;5052935;28;20024;-59
2020/12/11 05:29:54;;;;;;;8.40;3.90;;;19.60;77.20;;;;;;5053260;28;20024;-59
2020/12/11 05:32:44;;;;;;;8.05;4.63;;;19.60;77.60;;;;;;5055662;28;20422;-59
2020/12/11 05:35:21;;;;;;;5.97;3.35;;;19.60;77.30;;;;;;5052599;28;20033;-58
2020/12/11 05:38:02;;;;;;;10.85;4.07;;;19.60;77.10;;;;;;5067387;28;20033;-59
2020/12/11 05:40:30;;;;;;;6.45;3.75;;;19.60;77.20;;;;;;5066475;28;20017;-59
2020/12/11 05:43:20;;;;;;;7.25;4.18;;;19.60;77.20;;;;;;5052561;28;20017;-58
2020/12/11 05:45:57;;;;;;;10.80;4.07;;;19.60;76.90;;;;;;5049613;28;20017;-59
2020/12/11 05:48:25;;;;;;;7.72;4.15;;;19.60;77.30;;;;;;5052299;28;20520;-59
2020/12/11 05:50:51;;;;;;;7.20;4.07;;;19.60;77.30;;;;;;5058540;28;20024;-59
2020/12/11 05:53:17;;;;;;;8.07;4.35;;;19.60;76.80;;;;;;5072660;28;20465;-58
2020/12/11 05:55:42;;;;;;;8.38;4.18;;;19.60;76.90;;;;;;5072463;28;20039;-58
2020/12/11 05:58:12;;;;;;;7.38;3.80;;;19.60;77.20;;;;;;5072470;28;20025;-58
2020/12/11 06:00:41;;;;;;;7.65;4.28;;;19.60;77.50;;;;;;5071728;28;20021;-58
2020/12/11 06:03:07;;;;;;;8.70;4.45;;;19.60;77.10;;;;;;5072385;28;20021;-58
2020/12/11 06:05:38;;;;;;;7.93;4.38;;;19.60;77.50;;;;;;5058749;28;20028;-58
2020/12/11 06:08:08;;;;;;;11.98;4.40;;;19.60;77.40;;;;;;5052295;28;20032;-58
2020/12/11 06:10:34;;;;;;;9.27;3.72;;;19.60;76.90;;;;;;5052317;28;20017;-58
2020/12/11 06:13:03;;;;;;;7.60;3.72;;;19.60;77.10;;;;;;5066736;28;20017;-58
2020/12/11 06:15:51;;;;;;;7.88;4.10;;;19.60;76.60;;;;;;5070583;28;20086;-58
2020/12/11 06:18:20;;;;;;;7.07;3.70;;;19.60;76.70;;;;;;5052282;28;20036;-58
2020/12/11 06:20:47;;;;;;;6.25;3.92;;;19.60;76.80;;;;;;5050894;28;20400;-59
2020/12/11 06:23:19;;;;;;;7.70;4.22;;;19.60;76.60;;;;;;5051648;28;20044;-58
2020/12/11 06:26:02;;;;;;;6.45;4.07;;;19.60;76.50;;;;;;5052176;28;20405;-59
2020/12/11 06:28:41;;;;;;;9.65;4.22;;;19.60;77.00;;;;;;5053770;28;20067;-58
2020/12/11 06:31:14;;;;;;;10.10;4.25;;;19.60;76.90;;;;;;5056189;28;20142;-58
2020/12/11 06:33:46;;;;;;;7.55;3.60;;;19.50;77.70;;;;;;5072178;28;20066;-58
2020/12/11 06:36:13;;;;;;;8.07;4.22;;;19.50;77.00;;;;;;5076184;28;20099;-58
2020/12/11 06:38:53;;;;;;;5.25;3.78;;;19.50;77.00;;;;;;5074107;28;20455;-58
2020/12/11 06:41:28;;;;;;;7.75;4.50;;;19.50;76.50;;;;;;5074572;28;20021;-58
2020/12/11 06:44:14;;;;;;;11.85;4.85;;;19.50;76.60;;;;;;5074392;28;20047;-60
2020/12/11 06:46:40;;;;;;;8.65;4.15;;;19.60;77.20;;;;;;5075354;28;20040;-58
2020/12/11 06:49:10;;;;;;;9.73;4.13;;;19.50;76.80;;;;;;5075764;28;20043;-58
2020/12/11 06:51:56;;;;;;;7.25;4.57;;;19.60;77.00;;;;;;5074881;28;20021;-58
2020/12/11 06:54:22;;;;;;;8.63;4.40;;;19.50;77.00;;;;;;5067343;28;20050;-59
2020/12/11 06:56:49;;;;;;;9.30;4.70;;;19.50;77.40;;;;;;5075521;28;20020;-58
2020/12/11 06:59:34;;;;;;;8.52;4.60;;;19.60;77.40;;;;;;5074570;28;20032;-58
2020/12/11 07:02:02;;;;;;;6.63;4.30;;;19.60;77.50;;;;;;5073747;28;20028;-58
2020/12/11 07:04:37;;;;;;;7.55;4.05;;;19.60;77.80;;;;;;5073030;28;20326;-59
2020/12/11 07:07:02;;;;;;;8.05;4.32;;;19.60;77.80;;;;;;5075407;28;20480;-59
2020/12/11 07:09:28;;;;;;;9.18;4.03;;;19.50;77.80;;;;;;5075593;28;20033;-58
2020/12/11 07:11:56;;;;;;;5.47;3.50;;;19.60;77.90;;;;;;5074883;28;20042;-58
2020/12/11 07:14:27;;;;;;;6.95;4.53;;;19.60;78.00;;;;;;5063174;28;20021;-58
2020/12/11 07:16:53;;;;;;;7.47;3.88;;;19.60;77.90;;;;;;5055375;28;20094;-58
2020/12/11 07:19:19;;;;;;;7.25;4.35;;;19.50;78.20;;;;;;5055290;28;20477;-58
2020/12/11 07:21:46;;;;;;;7.43;3.78;;;19.60;78.00;;;;;;5055064;28;20032;-58
2020/12/11 07:24:13;;;;;;;6.50;4.00;;;19.60;78.00;;;;;;5056247;28;20037;-58
2020/12/11 07:26:39;;;;;;;6.38;3.40;;;19.50;78.20;;;;;;5055168;28;20024;-58
2020/12/11 07:29:15;;;;;;;6.35;3.90;;;19.50;78.40;;;;;;5055280;28;20037;-58
2020/12/11 07:31:46;;;;;;;4.72;3.22;;;19.60;78.30;;;;;;5064007;28;20040;-58
2020/12/11 07:34:13;;;;;;;4.05;3.58;;;19.50;78.40;;;;;;5059405;28;20028;-58
2020/12/11 07:36:39;;;;;;;6.78;4.03;;;19.60;78.30;;;;;;5074774;28;20027;-58
2020/12/11 07:39:16;;;;;;;9.48;3.88;;;19.60;78.40;;;;;;5075011;28;20025;-58
2020/12/11 07:41:46;;;;;;;8.70;3.40;;;19.60;78.20;;;;;;5075068;28;20399;-58
2020/12/11 07:44:22;;;;;;;5.95;2.67;;;19.50;79.50;;;;;;5064726;28;20025;-59
2020/12/11 07:46:48;;;;;;;3.55;2.78;;;19.50;83.00;;;;;;5054847;28;20021;-58
2020/12/11 07:49:14;;;;;;;8.93;3.65;;;19.60;82.60;;;;;;5054827;28;20041;-58
2020/12/11 07:51:46;;;;;;;8.65;3.72;;;19.60;81.80;;;;;;5054780;28;20048;-58
2020/12/11 07:54:12;;;;;;;8.77;3.80;;;19.60;81.50;;;;;;5059110;28;20369;-58
2020/12/11 07:56:38;;;;;;;15.18;4.63;;;19.60;81.30;;;;;;5072746;28;20034;-54
2020/12/11 07:59:13;;;;;;;7.10;3.40;;;19.60;83.70;;;;;;5072723;28;20031;-55
2020/12/11 08:01:39;;;;;;;7.43;3.40;;;19.60;82.70;;;;;;5074476;28;20024;-55
2020/12/11 08:04:05;;;;;;;8.50;3.17;;;19.60;82.90;;;;;;5073106;28;20449;-52
2020/12/11 08:06:32;;;;;;;10.73;4.22;;;19.70;81.90;;;;;;5074441;28;20048;-54
2020/12/11 08:08:58;;;;;;;10.98;3.25;;;19.70;81.70;;;;;;5072438;28;20381;-56
2020/12/11 08:11:26;;;;;;;9.48;4.13;;;19.80;81.60;;;;;;5066775;28;20052;-54
2020/12/11 08:14:02;;;;;;;10.38;4.05;;;19.80;81.80;;;;;;5074218;28;20123;-54
2020/12/11 08:16:29;;;;;;;5.35;3.55;;;19.80;81.70;;;;;;5069465;28;20020;-54
2020/12/11 08:18:56;;;;;;;5.85;3.45;;;19.80;81.40;;;;;;5073552;28;20016;-53
2020/12/11 08:21:32;;;;;;;8.25;3.47;;;19.90;81.40;;;;;;5063824;28;20063;-53
2020/12/11 08:23:58;;;;;;;8.05;3.28;;;19.90;81.20;;;;;;5053356;28;20134;-55
2020/12/11 08:26:26;;;;;;;5.35;3.20;;;20.00;81.20;;;;;;5074325;28;20052;-54
2020/12/11 08:29:05;;;;;;;13.80;4.28;;;20.00;81.10;;;;;;5069610;28;20047;-53
2020/12/11 08:31:37;;;;;;;7.97;3.47;;;20.10;81.10;;;;;;5065622;28;20033;-55
2020/12/11 08:34:05;;;;;;;;;;;20.00;80.80;;;;;;5072735;28;20028;-54
2020/12/11 08:36:32;;;;;;;9.82;3.63;;;20.10;80.80;;;;;;5073843;28;19901;-55
2020/12/11 08:39:15;;;;;;;13.25;3.80;;;20.10;80.90;;;;;;5062750;28;20027;-69
2020/12/11 08:42:41;;;;;;;10.18;3.58;;;20.10;80.70;;;;;;5070922;28;20021;-56
2020/12/11 08:45:05;;;;;;;10.57;3.22;;;20.20;81.10;;;;;;5063959;28;20024;-56
2020/12/11 08:52:30;;;;;;;14.10;3.47;;;20.20;80.90;;;;;;5066636;28;20040;-56
2020/12/11 08:54:56;;;;;;;9.98;3.63;;;20.30;81.00;;;;;;5071933;28;20376;-55
2020/12/11 08:57:23;;;;;;;9.40;3.80;;;20.30;81.00;;;;;;5071504;28;20460;-55
2020/12/11 08:59:49;;;;;;;10.57;3.42;;;20.30;80.90;;;;;;5072459;28;20376;-58
2020/12/11 09:02:14;;;;;;;9.20;3.35;;;20.30;80.80;;;;;;5072712;28;20016;-55
2020/12/11 09:04:40;;;;;;;7.22;3.05;;;20.30;80.80;;;;;;5073012;28;20028;-55
2020/12/11 09:07:06;;;;;;;12.80;3.63;;;20.30;80.70;;;;;;5071075;28;20024;-55
2020/12/11 09:09:31;;;;;;;11.40;3.40;;;20.30;80.80;;;;;;5072822;28;20117;-56
2020/12/11 09:11:57;;;;;;;7.70;3.05;;;20.40;80.80;;;;;;5073036;28;20399;-55
2020/12/11 09:14:23;;;;;;;7.97;3.22;;;20.40;80.80;;;;;;5071808;28;20032;-56
2020/12/11 09:16:48;;;;;;;12.43;3.33;;;20.40;80.40;;;;;;5068860;28;20124;-54
2020/12/11 09:19:15;;;;;;;13.07;3.55;;;20.40;80.50;;;;;;5067800;28;20484;-54
2020/12/11 09:21:40;;;;;;;11.48;3.53;;;20.40;80.40;;;;;;5073020;28;20020;-56
2020/12/11 09:24:06;;;;;;;11.52;3.75;;;20.40;80.30;;;;;;5072341;28;20048;-55
2020/12/11 09:26:32;;;;;;;12.00;3.30;;;20.40;80.40;;;;;;5069054;28;20025;-55
2020/12/11 09:29:46;;;;;;;8.40;3.10;;;20.40;80.50;;;;;;5071584;28;20095;-55
2020/12/11 09:31:47;;;;;;;10.35;3.40;;;20.50;80.50;;;;;;5064804;28;20136;-55
2020/12/11 09:34:12;;;;;;;6.72;2.95;;;20.50;80.60;;;;;;5072322;28;20016;-54
2020/12/11 09:36:44;;;;;;;10.38;2.40;;;20.50;80.50;;;;;;5071729;28;20032;-60
2020/12/11 09:39:10;;;;;;;28.42;5.28;;;20.50;80.60;;;;;;5072421;28;20170;-56
2020/12/11 09:41:43;;;;;;;17.92;4.13;;;20.50;82.70;;;;;;5072433;28;20016;-55
2020/12/11 09:49:20;;;;;;;19.63;4.63;;;20.50;83.20;;;;;;5069756;28;20044;-57
2020/12/11 09:54:22;;;;;;;19.15;4.22;;;20.50;82.50;;;;;;5072339;28;20025;-58
2020/12/11 09:56:47;;;;;;;17.30;4.05;;;20.50;82.70;;;;;;5072112;28;20418;-57
2020/12/11 09:59:26;;;;;;;19.52;5.10;;;20.50;82.40;;;;;;5070240;28;20099;-62
2020/12/11 10:04:56;;;;;;;14.20;4.68;;;20.50;82.70;;;;;;5024657;28;20379;-58
2020/12/11 10:07:21;;;;;;;15.90;3.88;;;20.50;82.40;;;;;;5028615;28;20017;-58
2020/12/11 10:09:47;;;;;;;19.77;4.60;;;20.50;82.40;;;;;;5042146;28;20067;-57
2020/12/11 10:12:13;;;;;;;20.67;3.95;;;20.50;82.20;;;;;;5071576;28;20029;-58
2020/12/11 10:14:42;;;;;;;19.80;4.47;;;20.50;82.20;;;;;;5057135;28;20028;-58
2020/12/11 10:17:09;;;;;;;27.52;5.10;;;20.50;82.20;;;;;;5061991;28;20031;-64
2020/12/11 10:19:35;;;;;;;12.73;4.15;;;20.50;82.40;;;;;;5071326;28;20052;-63
2020/12/11 10:22:01;;;;;;;14.27;3.65;;;20.50;82.20;;;;;;5072120;28;20047;-63
2020/12/11 10:24:26;;;;;;;10.95;4.18;;;20.50;82.00;;;;;;5066682;28;20049;-65
2020/12/11 10:26:53;;;;;;;15.43;4.68;;;20.50;82.00;;;;;;5070501;28;20460;-57
2020/12/11 10:29:19;;;;;;;14.23;4.55;;;20.50;81.90;;;;;;5070543;28;20041;-58
2020/12/11 10:31:45;;;;;;;11.35;3.88;;;20.50;81.90;;;;;;5065786;28;20110;-57
2020/12/11 10:34:13;;;;;;;12.88;4.25;;;20.50;82.20;;;;;;5070609;28;20047;-55
2020/12/11 10:36:39;;;;;;;22.05;4.63;;;20.50;81.90;;;;;;5056686;28;20366;-59
2020/12/11 10:39:05;;;;;;;21.33;4.60;;;20.50;81.90;;;;;;5070594;28;20028;-56
2020/12/11 10:41:32;;;;;;;18.30;3.85;;;20.50;81.90;;;;;;5071566;28;20112;-57
2020/12/11 10:43:58;;;;;;;15.88;4.10;;;20.50;81.80;;;;;;5062492;28;20029;-55
2020/12/11 10:46:23;;;;;;;15.60;3.72;;;20.60;81.70;;;;;;5070186;28;20029;-57
2020/12/11 10:48:49;;;;;;;12.50;4.22;;;20.50;81.70;;;;;;5066125;28;20044;-58
2020/12/11 10:51:18;;;;;;;14.65;4.50;;;20.50;81.60;;;;;;5070238;28;20024;-56
2020/12/11 10:53:45;;;;;;;15.07;4.53;;;20.50;81.70;;;;;;5069043;28;20078;-60
2020/12/11 10:56:12;;;;;;;10.70;3.63;;;20.50;81.60;;;;;;5068488;28;20031;-61
2020/12/11 10:58:39;;;;;;;19.52;4.07;;;20.50;81.60;;;;;;5071420;28;20036;-62
2020/12/11 11:01:10;;;;;;;12.63;4.40;;;20.50;81.70;;;;;;5070059;28;20461;-61
2020/12/11 11:03:36;;;;;;;10.48;3.65;;;20.60;81.90;;;;;;5068492;28;20024;-61
2020/12/11 11:06:51;;;;;;;9.60;3.33;;;20.60;81.80;;;;;;5070251;28;20376;-62
2020/12/11 11:11:38;;;;;;;11.32;3.28;;;20.50;81.70;;;;;;5071608;28;20396;-61
2020/12/11 11:22:20;;;;;;;7.38;3.47;;;20.50;82.40;;;;;;5031722;28;20128;-61
2020/12/11 11:27:45;;;;;;;14.95;4.28;;;20.40;82.50;;;;;;5074688;28;20028;-61
2020/12/11 11:30:11;;;;;;;9.45;3.33;;;20.40;82.50;;;;;;5073109;28;20029;-61
2020/12/11 11:32:37;;;;;;;9.88;3.60;;;20.40;82.50;;;;;;5074396;28;20397;-62
2020/12/11 11:35:04;;;;;;;11.88;4.05;;;20.40;82.50;;;;;;5074793;28;20021;-61
2020/12/11 11:37:30;;;;;;;9.30;3.10;;;20.40;82.60;;;;;;5074579;28;20028;-61
2020/12/11 11:39:56;;;;;;;8.40;3.80;;;20.40;82.50;;;;;;5069005;28;20020;-61
2020/12/11 11:42:22;;;;;;;9.48;3.35;;;20.40;82.60;;;;;;5074200;28;20025;-61
2020/12/11 11:47:23;;;;;;;11.00;3.55;;;20.30;82.30;;;;;;5074613;28;20024;-60
2020/12/11 11:52:27;;;;;;;11.75;4.00;;;20.40;82.30;;;;;;5070537;28;20471;-61
2020/12/11 11:54:53;;;;;;;9.15;3.38;;;20.40;82.30;;;;;;5073296;28;20098;-61
2020/12/11 11:57:19;;;;;;;8.38;3.10;;;20.30;82.10;;;;;;5071324;28;20032;-60
2020/12/11 11:59:44;;;;;;;9.90;4.03;;;20.30;82.10;;;;;;5072684;28;20021;-61
2020/12/11 12:02:10;;;;;;;13.98;3.30;;;20.30;82.00;;;;;;5064060;28;20020;-61
2020/12/11 12:04:35;;;;;;;8.50;3.50;;;20.30;81.90;;;;;;5071141;28;20380;-64
2020/12/11 12:07:01;;;;;;;13.52;3.20;;;20.40;82.10;;;;;;5072325;28;20032;-57
2020/12/11 12:09:27;;;;;;;9.57;3.15;;;20.40;82.10;;;;;;5070442;28;20043;-58
2020/12/11 12:11:52;;;;;;;11.63;3.65;;;20.40;82.10;;;;;;5069188;28;20075;-61
2020/12/11 12:14:18;;;;;;;8.95;3.30;;;20.50;82.00;;;;;;5073637;28;20033;-58
2020/12/11 12:16:45;;;;;;;8.75;3.30;;;20.50;82.00;;;;;;5062412;28;20027;-59
2020/12/11 12:19:17;;;;;;;8.18;2.95;;;20.50;82.10;;;;;;5064308;28;20034;-58
2020/12/11 12:29:35;;;;;;;6.95;2.88;;;20.60;81.80;;;;;;5063966;28;20123;-59
2020/12/11 12:32:07;;;;;;;9.38;3.75;;;20.60;81.80;;;;;;5073084;28;20027;-60
2020/12/11 12:44:51;;;;;;;10.38;3.47;;;20.60;80.30;;;;;;5066746;28;20099;-59
2020/12/11 12:47:21;;;;;;;7.88;3.58;;;20.70;80.40;;;;;;5073521;28;20048;-57
2020/12/11 12:49:46;;;;;;;5.43;2.72;;;20.70;80.30;;;;;;5070898;28;20020;-63
2020/12/11 12:52:12;;;;;;;5.95;3.08;;;20.70;80.10;;;;;;5073148;28;20104;-70
2020/12/11 12:54:37;;;;;;;9.85;3.75;;;20.70;80.00;;;;;;5059723;28;20049;-60
2020/12/11 12:57:07;;;;;;;5.25;3.25;;;20.70;80.00;;;;;;5073217;28;20027;-60
2020/12/11 12:59:42;;;;;;;6.60;2.97;;;20.70;80.10;;;;;;5073113;28;20477;-62
2020/12/11 13:07:30;;;;;;;8.07;3.70;;;20.70;80.00;;;;;;5064959;28;20074;-57
2020/12/11 13:09:56;;;;;;;7.20;2.92;;;20.70;79.90;;;;;;5073003;28;20452;-57
2020/12/11 13:12:22;;;;;;;7.43;3.25;;;20.70;80.00;;;;;;5072908;28;20030;-59
2020/12/11 13:14:48;;;;;;;5.97;2.78;;;20.70;80.00;;;;;;5063472;28;20059;-58
2020/12/11 13:17:14;;;;;;;6.63;3.38;;;20.70;80.10;;;;;;5071262;28;20056;-61
2020/12/11 13:19:40;;;;;;;7.22;3.10;;;20.70;80.00;;;;;;5072616;28;20031;-58
2020/12/11 13:27:23;;;;;;;7.55;3.08;;;20.70;79.80;;;;;;5072588;28;20035;-57
2020/12/11 13:29:50;;;;;;;5.97;3.28;;;20.70;79.80;;;;;;5071191;28;20043;-57
2020/12/11 13:32:16;;;;;;;5.30;3.00;;;20.70;80.00;;;;;;5073426;28;20012;-59
2020/12/11 13:34:42;;;;;;;6.05;3.20;;;20.70;80.10;;;;;;5070472;28;20027;-57
2020/12/11 13:37:08;;;;;;;6.15;3.00;;;20.70;80.20;;;;;;5072664;28;20475;-55
2020/12/11 13:39:33;;;;;;;7.45;2.90;;;20.70;80.10;;;;;;5070265;28;20023;-59
2020/12/11 13:41:59;;;;;;;6.95;3.22;;;20.80;80.20;;;;;;5061254;28;20104;-60
2020/12/11 13:44:24;;;;;;;7.10;2.78;;;20.70;80.00;;;;;;5070728;28;20020;-61
2020/12/11 13:46:50;;;;;;;5.60;2.85;;;20.80;80.10;;;;;;5071519;28;20443;-57
2020/12/11 13:49:18;;;;;;;6.53;3.05;;;20.70;80.10;;;;;;5062047;28;20047;-60
2020/12/11 13:51:47;;;;;;;7.78;3.00;;;20.70;80.10;;;;;;5068291;28;20028;-61